MAPA DE AEROPUERTO

INFORMACIÓN METAR y TAF

METAR FOR VTBD
ADDS - METARS form results

(1845 UTC 23 October 2021)
Data provider http://aviationweather.gov/metar/data/
 
METAR text: VTBD 231830Z 04003KT 9999 FEW020 26/26 Q1013 NOSIG
Conditions at: VTBD (BANGKOK/DON MUAN, TH) observed 1830 UTC 23 October 2021
Temperature: 26.0°C (79°F)
Dewpoint: 26.0°C (79°F) [RH = 100%]
Pressure (altimeter): 29.91 inches Hg (1013.0 mb)
Winds: from the NE (40 degrees) at 3 MPH (3 knots; 1.5 m/s)
Visibility: 6 or more miles (10+ km)
Ceiling: at least 12,000 feet AGL
Clouds: few clouds at 2000 feet AGL
Weather: no significant weather observed at this time

METAR text: VTBD 231800Z 03004KT 9999 FEW020 26/25 Q1014 NOSIG
Conditions at: VTBD (BANGKOK/DON MUAN, TH) observed 1800 UTC 23 October 2021
Temperature: 26.0°C (79°F)
Dewpoint: 25.0°C (77°F) [RH = 94%]
Pressure (altimeter): 29.94 inches Hg (1014.0 mb)
Winds: from the NNE (30 degrees) at 5 MPH (4 knots; 2.1 m/s)
Visibility: 6 or more miles (10+ km)
Ceiling: at least 12,000 feet AGL
Clouds: few clouds at 2000 feet AGL
Weather: no significant weather observed at this time

Forecast for: VTBD (BANGKOK/DON MUAN, TH)
Text: TAF VTBD 231700Z 2318/2424 01005KT 9999 FEW020
Forecast period: 1800 UTC 23 October 2021 to 0200 UTC 24 October 2021
Forecast type: FROM: standard forecast or significant change
Winds: from the N (10 degrees) at 6 MPH (5 knots; 2.6 m/s)
Visibility: 6 or more miles (10+ km)
Ceiling: at least 12,000 feet AGL
Clouds: few clouds at 2000 feet AGL
Weather: no significant weather forecast for this period
Text: BECMG 2402/2404 08008KT
Forecast period: 0200 to 1600 UTC 24 October 2021
Forecast type: BECOMING: Conditions expected to become as follows by 0400 UTC 24 October 2021
Winds: from the E (80 degrees) at 9 MPH (8 knots; 4.1 m/s)
Visibility: 6 or more miles (10+ km)
Ceiling: at least 12,000 feet AGL
Clouds: few clouds at 2000 feet AGL
Weather: no significant weather forecast for this period
Text: TEMPO 2406/2412 14012KT 4000 TSRA FEW018CB SCT030 BKN100
Forecast period: 0600 to 1200 UTC 24 October 2021
Forecast type: TEMPORARY: The following changes expected for less than half the time period
Winds: from the SE (140 degrees) at 14 MPH (12 knots; 6.2 m/s)
Visibility: 2.49 miles (4.01 km)
Ceiling: 10000 feet AGL
Clouds: few clouds at 1800 feet AGL
scattered clouds at 3000 feet AGL
broken clouds at 10000 feet AGL
Weather: TSRA  (rain associated with thunderstorm(s))
Text: BECMG 2416/2418 36005KT
Forecast period: 1600 UTC 24 October 2021 to 0000 UTC 25 October 2021
Forecast type: BECOMING: Conditions expected to become as follows by 1800 UTC 24 October 2021
Winds: from the N (360 degrees) at 6 MPH (5 knots; 2.6 m/s)
Visibility: 6 or more miles (10+ km)
Ceiling: at least 12,000 feet AGL
Clouds: few clouds at 2000 feet AGL
Weather: no significant weather forecast for this period